South Crossett, Arkansas
Current Conditions -  °F | °C
As of 1:15 AM on Thursday 18 Dec 2014 (Local Time) from KBQP Reporting Station
Overcast Overcast  
Wind Chill: 44°   Ceiling: 5000
Heat Index: 44°   Visibility: 10mi
Dew Point: 40°   Wind: 3mph
Humidity: 88%   Direction: 20°NNE
Pressure: 30.23"   Gusts: NA
Location:  33.1917°N, 91.9836°W
Report Text: KBQP 180715Z AUTO 02003KT 10SM OVC050 07/05 A3023 RMK AO2 T00650046
Loading
Personal Weather Stations






























Interactive Weather Map New forecast layout! Learn more

10-Day Weather Forecast

Advertisements
Track Severe Weather on mobile